createdAt,value
2023-03-11T02:10:21.202Z,79080.94
2023-03-11T02:27:27.872Z,79127.09
2023-03-11T02:31:34.075Z,79126.50
2023-03-11T02:35:54.134Z,79100.38
2023-03-11T02:38:23.976Z,79130.91
2023-03-11T02:44:30.674Z,79143.88
2023-03-11T02:47:02.068Z,79151.13
2023-03-11T02:49:32.592Z,79141.75
2023-03-11T02:52:02.046Z,79148.38
2023-03-11T02:54:32.235Z,79142.53
2023-03-11T02:57:01.926Z,79142.91
2023-03-11T02:59:30.880Z,79142.13
2023-03-11T03:02:02.164Z,79149.97
2023-03-11T03:04:32.012Z,79155.53
2023-03-11T03:07:01.918Z,79171.13
2023-03-11T03:09:33.250Z,79180.44
2023-03-11T03:12:02.564Z,79165.44
2023-03-11T03:14:33.049Z,79174.56
2023-03-11T03:17:02.097Z,79176.91
2023-03-11T03:19:31.109Z,79156.81
2023-03-11T03:22:00.181Z,79156.97
2023-03-11T03:24:29.600Z,79184.72
2023-03-11T03:26:59.047Z,79177.97
2023-03-11T03:29:27.969Z,79185.63
2023-03-11T03:31:57.758Z,79183.28
2023-03-11T03:34:26.745Z,79203.09
2023-03-11T03:36:55.935Z,79184.72
2023-03-11T03:39:24.861Z,79183.13
2023-03-11T03:41:54.944Z,79190.53
2023-03-11T03:44:26.231Z,79172.16
2023-03-11T03:46:57.037Z,79174.09
2023-03-11T03:49:26.358Z,79187.59
2023-03-11T03:51:55.854Z,79196.94
2023-03-11T03:54:33.037Z,79191.13
2023-03-11T03:57:05.456Z,79202.91
2023-03-11T03:59:40.660Z,79205.28
2023-03-11T04:02:09.719Z,79193.69
2023-03-11T04:04:38.842Z,79194.81
2023-03-11T04:07:08.333Z,79188.09
2023-03-11T04:09:39.769Z,79195.38
2023-03-11T04:12:09.671Z,79204.50
2023-03-11T04:14:39.309Z,79213.66
2023-03-11T04:17:08.271Z,79216.53
2023-03-11T04:19:36.994Z,79214.38
2023-03-11T04:22:05.877Z,79219.47
2023-03-11T04:24:35.299Z,79223.63
2023-03-11T04:27:05.104Z,79227.72
2023-03-11T04:29:35.860Z,79213.81
2023-03-11T04:32:04.714Z,79199.94
2023-03-11T04:34:34.293Z,79220.66
2023-03-11T04:37:04.550Z,79203.16
2023-03-11T04:39:36.209Z,79210.19
2023-03-11T04:42:05.204Z,79226.13
2023-03-11T04:44:37.285Z,79221.34
2023-03-11T04:47:07.764Z,79214.56
2023-03-11T04:49:38.203Z,79222.66
2023-03-11T04:52:08.200Z,79230.19
2023-03-11T04:54:37.858Z,79221.44
2023-03-11T04:57:10.840Z,79236.00
2023-03-11T04:59:43.857Z,79221.13
2023-03-11T05:02:14.434Z,79234.84
2023-03-11T05:04:52.744Z,79228.22
2023-03-11T05:07:23.838Z,79227.66
2023-03-11T05:09:54.256Z,79229.59
2023-03-11T05:12:23.187Z,79233.38
2023-03-11T05:14:54.550Z,79238.56
2023-03-11T05:17:25.793Z,79234.91
2023-03-11T05:19:56.626Z,79235.34
2023-03-11T05:22:30.851Z,79235.44
2023-03-11T05:25:00.042Z,79243.13
2023-03-11T05:27:28.984Z,79217.50
2023-03-11T05:29:59.393Z,79223.97
2023-03-11T05:32:30.054Z,79219.47
2023-03-11T05:34:59.050Z,79240.13
2023-03-11T05:37:29.535Z,79224.91
2023-03-11T05:39:59.081Z,79226.56
2023-03-11T05:42:28.172Z,79234.94
2023-03-11T05:44:58.347Z,79220.66
2023-03-11T05:47:28.009Z,79214.69
2023-03-11T05:49:58.613Z,79229.84
2023-03-11T05:52:28.146Z,79194.78
2023-03-11T05:54:56.901Z,79222.16
2023-03-11T05:57:29.809Z,79205.88
2023-03-11T05:59:59.715Z,79214.59
2023-03-11T06:02:29.133Z,79231.97
2023-03-11T06:04:59.214Z,79216.31
2023-03-11T06:07:28.527Z,79227.50
2023-03-11T06:09:58.388Z,79228.91
2023-03-11T06:12:27.609Z,79222.47
2023-03-11T06:15:09.160Z,79231.59
2023-03-11T06:17:40.256Z,79210.59
2023-03-11T06:20:11.627Z,79226.38
2023-03-11T06:22:41.874Z,79233.81
2023-03-11T06:25:13.736Z,79223.47
2023-03-11T06:27:46.011Z,79225.56
2023-03-11T06:30:15.766Z,79224.16
2023-03-11T06:32:53.972Z,79212.19
2023-03-11T06:35:23.411Z,79195.00
2023-03-11T06:37:52.304Z,79219.66
2023-03-11T06:40:21.372Z,79201.59
2023-03-11T06:42:50.266Z,79219.59
2023-03-11T06:45:21.087Z,79218.50
2023-03-11T06:47:50.995Z,79228.66
2023-03-11T06:50:21.201Z,79224.28
2023-03-11T06:52:50.491Z,79214.34
2023-03-11T06:55:19.547Z,79207.00
2023-03-11T06:57:49.750Z,79222.69
2023-03-11T07:00:19.000Z,79206.16
2023-03-11T07:02:53.804Z,79213.59
2023-03-11T07:05:23.440Z,79196.16
2023-03-11T07:07:56.736Z,79204.22
2023-03-11T07:10:27.646Z,79206.72
2023-03-11T07:12:56.817Z,79204.19
2023-03-11T07:15:25.844Z,79198.84
2023-03-11T07:17:56.185Z,79199.94
2023-03-11T07:20:25.906Z,79205.09
2023-03-11T07:22:55.288Z,79192.47
2023-03-11T07:25:24.812Z,79193.88
2023-03-11T07:27:53.429Z,79191.31
2023-03-11T07:30:22.544Z,79185.41
2023-03-11T07:32:51.332Z,79177.53
2023-03-11T07:35:20.423Z,79179.63
2023-03-11T07:37:49.000Z,79166.69
2023-03-11T07:40:18.695Z,79177.47
2023-03-11T07:42:47.261Z,79154.09
2023-03-11T07:45:17.686Z,79167.41
2023-03-11T07:47:46.560Z,79170.84
2023-03-11T07:50:15.501Z,79168.25
2023-03-11T07:52:45.322Z,79157.72
2023-03-11T07:55:14.181Z,79165.06
2023-03-11T07:57:43.714Z,79166.00
2023-03-11T08:00:13.456Z,79165.03
2023-03-11T08:02:42.491Z,79144.03
2023-03-11T08:05:11.930Z,79163.88
2023-03-11T08:07:40.999Z,79158.78
2023-03-11T08:10:11.120Z,79148.84
2023-03-11T08:12:40.551Z,79143.50
2023-03-11T08:15:10.229Z,79138.44
2023-03-11T08:17:39.034Z,79138.78
2023-03-11T08:20:09.755Z,79134.09
2023-03-11T08:22:48.732Z,79132.53
2023-03-11T08:25:24.812Z,79140.47
2023-03-11T08:27:54.117Z,79121.59
2023-03-11T08:30:23.849Z,79129.63
2023-03-11T08:32:53.203Z,79123.41
2023-03-11T08:35:22.578Z,79120.75
2023-03-11T08:37:51.847Z,79122.47
2023-03-11T08:40:21.520Z,79124.13
2023-03-11T08:42:50.365Z,79124.00
2023-03-11T08:45:19.544Z,79111.59
2023-03-11T08:47:48.392Z,79109.94
2023-03-11T08:50:20.199Z,79088.31
2023-03-11T08:52:49.636Z,79114.13
2023-03-11T08:55:25.986Z,79107.06
2023-03-11T08:57:55.166Z,79118.72
2023-03-11T09:00:25.048Z,79091.72
2023-03-11T09:02:54.569Z,79101.91
2023-03-11T09:05:23.290Z,79109.09
2023-03-11T09:07:53.579Z,79109.34
2023-03-11T09:10:22.421Z,79096.69
2023-03-11T09:12:51.340Z,79087.81
2023-03-11T09:15:20.968Z,79094.97
2023-03-11T09:17:49.571Z,79082.94
2023-03-11T09:20:19.044Z,79093.34
2023-03-11T09:22:47.808Z,79091.84
2023-03-11T09:25:18.600Z,79077.34
2023-03-11T09:27:47.407Z,79092.47
2023-03-11T09:30:16.029Z,79073.94
2023-03-11T09:32:45.205Z,79083.22
2023-03-11T09:35:14.071Z,79088.72
2023-03-11T09:37:43.099Z,79066.91
2023-03-11T09:40:19.264Z,79080.53
2023-03-11T09:43:32.733Z,79086.78
2023-03-11T09:46:26.018Z,79086.53
2023-03-11T09:49:23.955Z,79086.69
2023-03-11T09:52:13.499Z,79073.78
2023-03-11T09:54:53.715Z,79080.97
2023-03-11T09:57:28.232Z,79067.06
2023-03-11T09:59:57.848Z,79068.00
2023-03-11T10:02:29.351Z,79078.53
2023-03-11T10:05:21.887Z,79077.06
2023-03-11T10:08:17.499Z,79083.69
2023-03-11T10:10:55.597Z,79062.19
2023-03-11T10:13:39.187Z,79073.03
2023-03-11T10:16:28.653Z,79072.91
2023-03-11T10:19:15.656Z,79059.22
2023-03-11T10:22:22.043Z,79078.16
2023-03-11T10:25:06.871Z,79069.13
2023-03-11T10:28:04.225Z,79068.16
2023-03-11T10:30:59.018Z,79073.13
2023-03-11T10:33:47.556Z,79076.66
2023-03-11T10:36:25.766Z,79054.63
2023-03-11T10:38:57.686Z,79072.97
2023-03-11T10:41:38.242Z,79067.22
2023-03-11T10:44:17.480Z,79064.78
2023-03-11T10:46:46.501Z,79069.13
2023-03-11T10:49:17.367Z,79072.81
2023-03-11T10:51:49.838Z,79072.50
2023-03-11T10:54:40.760Z,79077.41
2023-03-11T10:57:37.056Z,79075.34
2023-03-11T11:00:18.118Z,79082.84
2023-03-11T11:02:59.047Z,79076.03
2023-03-11T11:05:34.673Z,79071.50
2023-03-11T11:08:18.639Z,79084.22
2023-03-11T11:10:56.224Z,79059.97
2023-03-11T11:13:28.768Z,79068.28
2023-03-11T11:16:02.343Z,79074.97
2023-03-11T11:18:38.926Z,79084.09
2023-03-11T11:21:11.171Z,79071.06
2023-03-11T11:23:48.220Z,79078.03
2023-03-11T11:26:23.083Z,79055.94
2023-03-11T11:29:11.712Z,79076.75
2023-03-11T11:31:44.804Z,79078.66
2023-03-11T11:34:33.460Z,79074.25
2023-03-11T11:37:08.037Z,79075.25
2023-03-11T11:39:52.506Z,79063.53
2023-03-11T11:42:22.558Z,79070.81
2023-03-11T11:45:20.257Z,79070.53
2023-03-11T11:47:54.577Z,79048.97
2023-03-11T11:50:31.306Z,79069.03
2023-03-11T11:53:12.356Z,79058.09
2023-03-11T11:55:50.697Z,79075.47
2023-03-11T11:58:21.440Z,79054.84
2023-03-11T12:01:15.216Z,79079.31
2023-03-11T12:04:21.620Z,79076.25
2023-03-11T12:07:05.598Z,79075.88
2023-03-11T12:10:09.833Z,79075.88
2023-03-11T12:13:12.362Z,79052.22
2023-03-11T12:16:15.988Z,79045.88
2023-03-11T12:18:53.776Z,79050.19
2023-03-11T12:21:28.178Z,79084.31
2023-03-11T12:24:24.877Z,79085.84
2023-03-11T12:26:55.948Z,79082.88
2023-03-11T12:29:32.272Z,79086.03
2023-03-11T12:32:03.329Z,79083.22
2023-03-11T12:34:36.705Z,79065.72
2023-03-11T12:37:17.967Z,79044.00
2023-03-11T12:39:46.920Z,79078.47
2023-03-11T12:42:16.149Z,79090.59
2023-03-11T12:44:47.177Z,79083.91
2023-03-11T12:47:23.786Z,79087.59
2023-03-11T12:49:57.180Z,79069.84
2023-03-11T12:52:30.393Z,79085.97
2023-03-11T12:55:02.537Z,79087.78
2023-03-11T12:58:02.754Z,79097.00
2023-03-11T13:00:42.475Z,79092.28
2023-03-11T13:03:33.438Z,79074.41
2023-03-11T13:06:36.387Z,79101.22
2023-03-11T13:09:05.593Z,79064.75
2023-03-11T13:11:34.152Z,79104.53
2023-03-11T13:14:35.216Z,79094.41
2023-03-11T13:17:28.221Z,79119.84
2023-03-11T13:20:00.889Z,79118.00
2023-03-11T13:23:13.943Z,79120.25
2023-03-11T13:25:43.941Z,79120.91
2023-03-11T13:28:25.038Z,79124.44
2023-03-11T13:31:39.679Z,79118.59
2023-03-11T13:34:12.566Z,79125.50
2023-03-11T13:37:06.624Z,79115.72
2023-03-11T13:39:59.285Z,79130.34
2023-03-11T13:42:41.288Z,79135.25
2023-03-11T13:45:29.440Z,79114.41
2023-03-11T13:48:08.429Z,79136.19
2023-03-11T13:50:42.815Z,79141.03
2023-03-11T13:53:30.022Z,79142.41
2023-03-11T13:55:58.968Z,79134.66
2023-03-11T13:58:30.329Z,79155.28
2023-03-11T14:01:01.770Z,79146.16
2023-03-11T14:03:37.131Z,79146.31
2023-03-11T14:06:15.230Z,79162.44
2023-03-11T14:08:53.336Z,79149.38
2023-03-11T14:11:28.288Z,79162.63
2023-03-11T14:13:57.422Z,79149.75
2023-03-11T14:16:36.674Z,79171.38
2023-03-11T14:19:13.162Z,79172.09
2023-03-11T14:21:47.155Z,79158.94
2023-03-11T14:24:20.868Z,79172.09
2023-03-11T14:26:50.727Z,79159.13
2023-03-11T14:29:22.242Z,79175.78
2023-03-11T14:31:52.640Z,79183.13
2023-03-11T14:34:28.557Z,79187.34
2023-03-11T14:37:00.277Z,79174.81
2023-03-11T14:39:34.942Z,79187.34
2023-03-11T14:42:23.248Z,79199.88
2023-03-11T14:44:55.332Z,79200.72
2023-03-11T14:48:15.588Z,79206.00
2023-03-11T14:50:50.875Z,79208.13
2023-03-11T14:53:41.708Z,79214.06
2023-03-11T14:56:19.884Z,79187.06
2023-03-11T14:59:33.064Z,79216.81
2023-03-11T15:02:44.069Z,79179.28
2023-03-11T15:05:37.032Z,79210.81
2023-03-11T15:08:08.317Z,79226.13
2023-03-11T15:10:38.020Z,79213.47
2023-03-11T15:13:20.342Z,79211.53
2023-03-11T15:15:58.657Z,79226.72
2023-03-11T15:18:34.270Z,79206.25
2023-03-11T15:21:07.813Z,79226.06
2023-03-11T15:23:37.772Z,79205.66
2023-03-11T15:26:07.895Z,79240.72
2023-03-11T15:28:40.628Z,79215.56
2023-03-11T15:31:18.207Z,79205.00
2023-03-11T15:33:48.328Z,79233.41
2023-03-11T15:36:35.626Z,79240.06
2023-03-11T15:39:20.729Z,79234.84
2023-03-11T15:42:09.968Z,79246.09
2023-03-11T15:44:53.677Z,79247.41
2023-03-11T15:47:24.458Z,79231.03
2023-03-11T15:49:54.048Z,79234.34
2023-03-11T15:52:23.278Z,79240.47
2023-03-11T15:54:56.073Z,79255.63
2023-03-11T15:57:28.583Z,79231.84
2023-03-11T16:00:00.925Z,79239.22
2023-03-11T16:02:32.878Z,79245.19
2023-03-11T16:05:01.972Z,79237.94
2023-03-11T16:07:39.515Z,79241.94
2023-03-11T16:10:12.269Z,79255.16
2023-03-11T16:12:44.085Z,79235.41
2023-03-11T16:15:32.467Z,79261.84
2023-03-11T16:18:04.704Z,79257.38
2023-03-11T16:20:47.778Z,79225.50
2023-03-11T16:23:28.193Z,79260.50
2023-03-11T16:26:01.313Z,79252.03
2023-03-11T16:28:30.783Z,79251.31
2023-03-11T16:31:00.772Z,79229.50
2023-03-11T16:33:30.574Z,79239.50
2023-03-11T16:35:59.496Z,79258.56
2023-03-11T16:38:29.047Z,79269.88
2023-03-11T16:41:03.640Z,79261.84
2023-03-11T16:43:33.309Z,79265.94
2023-03-11T16:46:02.561Z,79247.50
2023-03-11T16:48:32.648Z,79237.50
2023-03-11T16:51:02.079Z,79252.09
2023-03-11T16:53:30.771Z,79219.00
2023-03-11T16:56:00.745Z,79254.72
2023-03-11T16:58:29.507Z,79258.59
2023-03-11T17:00:58.598Z,79258.66
2023-03-11T17:03:31.558Z,79246.06
2023-03-11T17:06:04.799Z,79258.63
2023-03-11T17:08:33.910Z,79242.41
2023-03-11T17:11:02.697Z,79236.16
2023-03-11T17:13:32.489Z,79253.59
2023-03-11T17:16:03.166Z,79240.63
2023-03-11T17:18:32.410Z,79264.00
2023-03-11T17:21:03.129Z,79236.97
2023-03-11T17:23:32.088Z,79258.25
2023-03-11T17:26:02.559Z,79251.09
2023-03-11T17:28:32.453Z,79244.53
2023-03-11T17:31:01.579Z,79235.22
2023-03-11T17:33:31.596Z,79243.22
2023-03-11T17:36:08.887Z,79255.91
2023-03-11T17:38:38.149Z,79230.28
2023-03-11T17:41:12.676Z,79227.66
2023-03-11T17:43:42.115Z,79224.34
2023-03-11T17:46:15.739Z,79254.84
2023-03-11T17:48:46.179Z,79253.59
2023-03-11T17:51:20.360Z,79239.66
2023-03-11T17:53:52.562Z,79237.00
2023-03-11T17:56:21.970Z,79242.03
2023-03-11T17:58:51.637Z,79228.81
2023-03-11T18:01:25.871Z,79253.88
2023-03-11T18:03:55.855Z,79250.56
2023-03-11T18:06:25.494Z,79223.66
2023-03-11T18:08:54.604Z,79239.53
2023-03-11T18:11:26.837Z,79222.16
2023-03-11T18:13:56.006Z,79209.59
2023-03-11T18:16:27.138Z,79248.63
2023-03-11T18:18:58.011Z,79240.13
2023-03-11T18:21:29.452Z,79226.34
2023-03-11T18:24:00.943Z,79229.75
2023-03-11T18:26:32.088Z,79234.38
2023-03-11T18:29:02.048Z,79238.84
2023-03-11T18:31:32.048Z,79236.72
2023-03-11T18:34:06.128Z,79236.44
2023-03-11T18:36:38.325Z,79231.53
2023-03-11T18:39:08.464Z,79231.22
2023-03-11T18:41:37.656Z,79218.00
2023-03-11T18:44:06.468Z,79211.03
2023-03-11T18:46:35.740Z,79238.03
2023-03-11T18:49:06.361Z,79214.69
2023-03-11T18:51:35.251Z,79204.13
2023-03-11T18:54:04.729Z,79229.78
2023-03-11T18:56:34.206Z,79214.56
2023-03-11T18:59:03.271Z,79189.44
2023-03-11T19:01:32.758Z,79202.03
2023-03-11T19:04:01.788Z,79220.50
2023-03-11T19:06:31.416Z,79211.53
2023-03-11T19:09:00.316Z,79196.47
2023-03-11T19:11:32.338Z,79222.59
2023-03-11T19:14:01.437Z,79207.63
2023-03-11T19:16:31.906Z,79200.50
2023-03-11T19:19:01.762Z,79209.31
2023-03-11T19:21:30.975Z,79183.78
2023-03-11T19:24:00.866Z,79190.50
2023-03-11T19:26:43.787Z,79193.16
2023-03-11T19:29:14.976Z,79212.34
2023-03-11T19:31:47.053Z,79202.50
2023-03-11T19:34:16.965Z,79178.69
2023-03-11T19:36:47.678Z,79180.84
2023-03-11T19:39:16.698Z,79172.28
2023-03-11T19:41:45.494Z,79201.50
2023-03-11T19:44:14.689Z,79200.28
2023-03-11T19:46:43.844Z,79190.97
2023-03-11T19:49:13.074Z,79185.00
2023-03-11T19:51:50.162Z,79160.53
2023-03-11T19:54:20.612Z,79185.69
2023-03-11T19:56:50.556Z,79176.53
2023-03-11T19:59:19.651Z,79184.44
2023-03-11T20:01:48.624Z,79187.03
2023-03-11T20:04:17.581Z,79180.34
2023-03-11T20:06:47.617Z,79175.06
2023-03-11T20:09:17.056Z,79159.84
2023-03-11T20:11:46.675Z,79166.38
2023-03-11T20:14:16.250Z,79184.19
2023-03-11T20:16:45.425Z,79171.03
2023-03-11T20:19:14.349Z,79174.28
2023-03-11T20:21:45.950Z,79173.63
2023-03-11T20:24:15.534Z,79151.88
2023-03-11T20:26:44.428Z,79166.31
2023-03-11T20:29:13.311Z,79147.84
2023-03-11T20:31:42.255Z,79159.53
2023-03-11T20:34:12.163Z,79162.25
2023-03-11T20:36:41.206Z,79144.31
2023-03-11T20:39:12.321Z,79172.03
2023-03-11T20:41:42.619Z,79166.63
2023-03-11T20:44:14.862Z,79161.81
2023-03-11T20:46:44.354Z,79150.28
2023-03-11T20:49:13.236Z,79150.16
2023-03-11T20:51:42.263Z,79144.75
2023-03-11T20:54:12.911Z,79161.19
2023-03-11T20:56:42.677Z,79163.88
2023-03-11T20:59:14.890Z,79161.22
2023-03-11T21:01:45.559Z,79132.78
2023-03-11T21:04:16.419Z,79136.69
2023-03-11T21:06:45.990Z,79148.34
2023-03-11T21:09:15.884Z,79152.22
2023-03-11T21:11:44.942Z,79148.03
2023-03-11T21:14:17.575Z,79138.03
2023-03-11T21:16:47.290Z,79149.91
2023-03-11T21:19:16.662Z,79144.50
2023-03-11T21:21:46.044Z,79110.81
2023-03-11T21:24:15.515Z,79141.00
2023-03-11T21:26:44.552Z,79128.47
2023-03-11T21:29:14.032Z,79078.97
2023-03-11T21:31:43.101Z,79117.09
2023-03-11T21:34:13.451Z,79107.91
2023-03-11T21:36:42.663Z,79108.38
2023-03-11T21:39:11.591Z,79116.03
2023-03-11T21:41:41.958Z,79108.94
2023-03-11T21:44:11.160Z,79124.28
2023-03-11T21:46:39.981Z,79122.94
2023-03-11T21:49:09.003Z,79092.50
2023-03-11T21:51:38.477Z,79083.75
2023-03-11T21:54:07.784Z,79120.44
2023-03-11T21:56:37.126Z,79085.78
2023-03-11T21:59:06.521Z,79115.28
2023-03-11T22:01:36.177Z,79076.28
2023-03-11T22:04:05.762Z,79101.81
2023-03-11T22:06:35.144Z,79104.88
2023-03-11T22:09:05.981Z,79121.94
2023-03-11T22:11:35.475Z,79108.69
2023-03-11T22:14:04.583Z,79069.66
2023-03-11T22:16:34.107Z,79099.72
2023-03-11T22:19:05.433Z,79094.00
2023-03-11T22:21:34.505Z,79117.13
2023-03-11T22:24:03.182Z,79101.25
2023-03-11T22:26:32.059Z,79097.44
2023-03-11T22:29:03.751Z,79100.78
2023-03-11T22:31:33.246Z,79107.63
2023-03-11T22:34:02.553Z,79090.59
2023-03-11T22:36:32.540Z,79094.03
2023-03-11T22:39:03.539Z,79100.03
2023-03-11T22:41:32.965Z,79088.13
2023-03-11T22:44:02.637Z,79103.22
2023-03-11T22:46:31.866Z,79080.91
2023-03-11T22:49:00.622Z,79055.97
2023-03-11T22:51:29.410Z,79105.69
2023-03-11T22:53:58.377Z,79082.25
2023-03-11T22:56:27.413Z,79073.63
2023-03-11T22:58:55.979Z,79082.41
2023-03-11T23:01:27.523Z,79101.72
2023-03-11T23:03:58.118Z,79106.47
2023-03-11T23:06:27.093Z,79090.72
2023-03-11T23:08:56.387Z,79105.78
2023-03-11T23:11:25.432Z,79094.69
2023-03-11T23:13:55.111Z,79098.09
